Time;durP1;ratioP1;P1;durP2;ratioP2;P2;SDS_P1;SDS_P2;PMS_P1;PMS_P2;Temp;Humidity;BMP_temperature;BMP_pressure;BME280_temperature;BME280_humidity;BME280_pressure;Samples;Min_cycle;Max_cycle;Signal;HPM_P1;HPM_P2
2022/05/28 00:00:54;;;;;;;0.85;0.65;;;15.60;99.90;;;;;;4953571;29;20089;-74
2022/05/28 00:03:20;;;;;;;0.70;0.70;;;15.60;99.90;;;;;;4953170;29;20035;-73
2022/05/28 00:05:46;;;;;;;0.45;0.45;;;15.60;99.90;;;;;;4953701;29;20034;-73
2022/05/28 00:08:12;;;;;;;1.20;0.68;;;15.60;99.90;;;;;;4953565;29;20372;-73
2022/05/28 00:10:38;;;;;;;0.63;0.63;;;15.60;99.90;;;;;;4952794;29;20036;-73
2022/05/28 00:13:03;;;;;;;0.60;0.60;;;15.60;99.90;;;;;;4953485;29;20034;-73
2022/05/28 00:15:29;;;;;;;0.50;0.50;;;15.60;99.90;;;;;;4953261;29;20035;-74
2022/05/28 00:17:55;;;;;;;1.10;0.70;;;15.60;99.90;;;;;;4953392;29;20062;-74
2022/05/28 00:20:21;;;;;;;0.60;0.60;;;15.60;99.90;;;;;;4953019;29;20059;-73
2022/05/28 00:22:46;;;;;;;0.70;0.70;;;15.60;99.90;;;;;;4956191;28;20383;-73
2022/05/28 00:25:15;;;;;;;0.77;0.73;;;15.60;99.90;;;;;;4955458;29;20035;-73
2022/05/28 00:27:41;;;;;;;0.70;0.70;;;15.60;99.90;;;;;;4956234;29;20027;-73
2022/05/28 00:30:09;;;;;;;0.90;0.65;;;15.60;99.90;;;;;;4956910;29;20026;-73
2022/05/28 00:32:34;;;;;;;2.78;0.80;;;15.60;99.90;;;;;;4956352;29;20086;-73
2022/05/28 00:35:00;;;;;;;0.60;0.60;;;15.60;99.90;;;;;;4957092;29;20039;-73
2022/05/28 00:37:26;;;;;;;0.60;0.60;;;15.60;99.90;;;;;;4956280;29;20027;-73
2022/05/28 00:39:51;;;;;;;0.60;0.60;;;15.60;99.90;;;;;;4956921;29;20027;-74
2022/05/28 00:42:17;;;;;;;1.48;1.05;;;15.60;99.90;;;;;;4956609;29;20042;-73
2022/05/28 00:44:43;;;;;;;1.02;0.60;;;15.60;99.90;;;;;;4956186;29;20853;-74
2022/05/28 00:47:09;;;;;;;1.27;0.70;;;15.60;99.90;;;;;;4956302;29;20031;-74
2022/05/28 00:49:35;;;;;;;1.38;0.60;;;15.60;99.90;;;;;;4956081;29;20031;-73
2022/05/28 00:52:04;;;;;;;1.75;0.60;;;15.60;99.90;;;;;;4956540;29;20031;-73
2022/05/28 00:54:35;;;;;;;1.55;0.73;;;15.60;99.90;;;;;;4955792;29;20027;-73
2022/05/28 00:57:03;;;;;;;0.65;0.65;;;15.60;99.90;;;;;;4955126;29;20062;-74
2022/05/28 00:59:29;;;;;;;0.77;0.77;;;15.60;99.90;;;;;;4955717;29;20550;-74
2022/05/28 01:02:00;;;;;;;1.25;0.70;;;15.70;99.90;;;;;;4955700;29;20078;-73
2022/05/28 01:04:44;;;;;;;1.58;0.88;;;15.70;99.90;;;;;;4955049;29;20114;-75
2022/05/28 01:07:35;;;;;;;0.68;0.68;;;15.70;99.90;;;;;;4955781;29;20102;-73
2022/05/28 01:10:12;;;;;;;1.05;0.80;;;15.70;99.90;;;;;;4956577;29;20130;-74
2022/05/28 01:13:04;;;;;;;1.00;0.90;;;15.70;99.90;;;;;;4955226;29;20066;-73
2022/05/28 01:15:35;;;;;;;1.02;0.80;;;15.70;99.90;;;;;;4955103;29;20038;-72
2022/05/28 01:18:27;;;;;;;0.73;0.70;;;15.70;99.90;;;;;;4938591;29;20042;-73
2022/05/28 01:21:00;;;;;;;0.60;0.60;;;15.70;99.90;;;;;;4950310;29;20058;-75
2022/05/28 01:23:39;;;;;;;0.82;0.70;;;15.70;99.90;;;;;;4955504;29;20039;-74
2022/05/28 01:26:18;;;;;;;0.93;0.88;;;15.70;99.90;;;;;;4955029;29;20027;-72
2022/05/28 01:28:58;;;;;;;1.88;0.70;;;15.70;99.90;;;;;;4955461;29;20037;-72
2022/05/28 01:31:27;;;;;;;0.80;0.80;;;15.70;99.90;;;;;;4955901;29;20110;-73
2022/05/28 01:33:55;;;;;;;0.70;0.70;;;15.80;99.90;;;;;;4954348;28;20118;-73
2022/05/28 01:36:22;;;;;;;0.77;0.70;;;15.80;99.90;;;;;;4954664;29;20526;-72
2022/05/28 01:38:49;;;;;;;0.80;0.77;;;15.80;99.90;;;;;;4954586;29;20058;-73
2022/05/28 01:41:16;;;;;;;0.88;0.85;;;15.80;99.90;;;;;;4955488;29;20038;-73
2022/05/28 01:43:46;;;;;;;0.88;0.68;;;15.80;99.90;;;;;;4954248;29;20051;-73
2022/05/28 01:46:14;;;;;;;0.98;0.85;;;15.80;99.90;;;;;;4955274;29;20143;-74
2022/05/28 01:48:42;;;;;;;0.95;0.70;;;15.80;99.90;;;;;;4954466;29;20032;-73
2022/05/28 01:51:11;;;;;;;1.00;0.82;;;15.80;99.90;;;;;;4937735;29;20038;-73
2022/05/28 01:56:23;;;;;;;0.88;0.80;;;15.80;99.90;;;;;;4954913;29;20034;-73
2022/05/28 01:58:49;;;;;;;0.93;0.90;;;15.80;99.90;;;;;;4954163;29;20035;-72
2022/05/28 02:01:15;;;;;;;0.85;0.77;;;15.80;99.90;;;;;;4954292;29;20027;-73
2022/05/28 02:03:46;;;;;;;1.23;1.10;;;15.70;99.90;;;;;;4954048;29;20023;-73
2022/05/28 02:06:12;;;;;;;0.93;0.80;;;15.70;99.90;;;;;;4954813;29;20534;-73
2022/05/28 02:08:42;;;;;;;1.05;0.80;;;15.80;99.90;;;;;;4955104;29;20023;-73
2022/05/28 02:11:15;;;;;;;0.90;0.70;;;15.80;99.90;;;;;;4955413;29;20476;-73
2022/05/28 02:14:25;;;;;;;1.23;1.02;;;15.70;99.90;;;;;;4954776;29;20034;-73
2022/05/28 02:17:08;;;;;;;0.88;0.80;;;15.80;99.90;;;;;;4954840;29;20077;-73
2022/05/28 02:19:59;;;;;;;3.85;0.98;;;15.80;99.90;;;;;;4954755;29;20321;-73
2022/05/28 02:22:47;;;;;;;1.50;1.08;;;15.70;99.90;;;;;;4901664;29;20058;-72
2022/05/28 02:25:53;;;;;;;1.52;1.10;;;15.70;99.90;;;;;;4954799;29;20028;-73
2022/05/28 02:28:23;;;;;;;2.50;0.80;;;15.70;99.90;;;;;;4954528;29;20031;-73
2022/05/28 02:30:54;;;;;;;1.30;1.02;;;15.70;99.90;;;;;;4954383;29;20047;-72
2022/05/28 02:33:20;;;;;;;;;;;15.70;99.90;;;;;;4955301;29;20027;-73
2022/05/28 02:35:46;;;;;;;0.70;0.70;;;15.70;99.90;;;;;;4954789;29;19906;-73
2022/05/28 02:38:14;;;;;;;0.90;0.80;;;15.70;99.90;;;;;;4954452;29;20353;-74
2022/05/28 02:40:40;;;;;;;1.00;0.90;;;15.70;99.90;;;;;;4954279;29;20476;-73
2022/05/28 02:43:06;;;;;;;1.25;0.90;;;15.70;99.90;;;;;;4954439;28;20059;-73
2022/05/28 02:45:31;;;;;;;0.68;0.60;;;15.70;99.90;;;;;;4953346;28;20057;-74
2022/05/28 02:47:57;;;;;;;1.00;0.90;;;15.70;99.90;;;;;;4954410;29;20053;-74
2022/05/28 02:50:26;;;;;;;1.35;0.90;;;15.70;99.90;;;;;;4953592;29;20031;-73
2022/05/28 02:52:52;;;;;;;1.05;0.80;;;15.70;99.90;;;;;;4953132;29;20027;-74
2022/05/28 02:55:18;;;;;;;1.52;1.00;;;15.70;99.90;;;;;;4953300;29;20444;-73
2022/05/28 02:57:44;;;;;;;1.40;1.13;;;15.70;99.90;;;;;;4952884;29;20731;-73
2022/05/28 03:00:10;;;;;;;1.58;0.85;;;15.70;99.90;;;;;;4953449;29;20027;-73
2022/05/28 03:02:37;;;;;;;1.85;0.80;;;15.70;99.90;;;;;;4953119;29;20140;-74
2022/05/28 03:05:03;;;;;;;1.42;1.25;;;15.70;99.90;;;;;;4953227;29;20106;-74
2022/05/28 03:07:29;;;;;;;1.27;0.88;;;15.70;99.90;;;;;;4953681;29;20034;-74
2022/05/28 03:09:54;;;;;;;1.58;1.08;;;15.70;99.90;;;;;;4953079;29;20028;-73
2022/05/28 03:12:20;;;;;;;1.58;1.05;;;15.70;99.90;;;;;;4953092;29;20042;-73
2022/05/28 03:14:46;;;;;;;0.95;0.90;;;15.70;99.90;;;;;;4952616;29;20110;-73
2022/05/28 03:17:11;;;;;;;1.17;0.93;;;15.70;99.90;;;;;;4952800;29;20021;-73
2022/05/28 03:19:37;;;;;;;1.90;1.20;;;15.70;99.90;;;;;;4953718;29;20019;-73
2022/05/28 03:22:03;;;;;;;1.00;0.90;;;15.70;99.90;;;;;;4936660;29;20113;-73
2022/05/28 03:24:28;;;;;;;1.30;0.90;;;15.70;99.90;;;;;;4954159;29;20546;-72
2022/05/28 03:26:57;;;;;;;1.98;1.20;;;15.70;99.90;;;;;;4953720;29;20027;-72
2022/05/28 03:29:24;;;;;;;1.25;1.00;;;15.70;99.90;;;;;;4953752;29;20023;-72
2022/05/28 03:31:50;;;;;;;1.50;1.15;;;15.70;99.90;;;;;;4953409;29;20563;-72
2022/05/28 03:34:16;;;;;;;1.20;1.10;;;15.80;99.90;;;;;;4953396;29;20023;-72
2022/05/28 03:36:42;;;;;;;1.70;1.30;;;15.80;99.90;;;;;;4952935;29;20034;-73
2022/05/28 03:39:07;;;;;;;1.60;1.13;;;15.80;99.90;;;;;;4953483;29;20027;-73
2022/05/28 03:41:34;;;;;;;1.75;1.35;;;15.80;99.90;;;;;;4953340;29;20422;-75
2022/05/28 03:44:00;;;;;;;1.55;1.30;;;15.80;99.90;;;;;;4953707;29;20055;-72
2022/05/28 03:46:31;;;;;;;1.85;1.40;;;15.80;99.90;;;;;;4953679;29;20029;-72
2022/05/28 03:49:00;;;;;;;1.75;1.23;;;15.80;99.90;;;;;;4953201;29;20023;-73
2022/05/28 03:51:26;;;;;;;3.60;1.02;;;15.80;99.90;;;;;;4953720;29;20110;-72
2022/05/28 03:53:52;;;;;;;1.80;1.27;;;15.90;99.90;;;;;;4953605;29;20055;-73
2022/05/28 03:56:19;;;;;;;2.35;1.30;;;15.80;99.90;;;;;;4954885;28;20063;-73
2022/05/28 03:58:44;;;;;;;1.95;1.42;;;15.80;99.90;;;;;;4940034;29;20078;-73
2022/05/28 04:01:10;;;;;;;2.15;1.30;;;15.70;99.90;;;;;;4957446;29;20031;-73
2022/05/28 04:03:36;;;;;;;2.85;1.23;;;15.60;99.90;;;;;;4956758;29;20097;-74
2022/05/28 04:06:03;;;;;;;1.17;0.90;;;15.60;99.90;;;;;;4957418;29;20034;-73
2022/05/28 04:08:29;;;;;;;1.20;1.10;;;15.60;99.90;;;;;;4957262;29;20051;-74
2022/05/28 04:10:55;;;;;;;2.10;1.20;;;15.50;99.90;;;;;;4957019;29;20067;-74
2022/05/28 04:13:20;;;;;;;0.80;0.80;;;15.40;99.90;;;;;;4957197;29;20409;-74
2022/05/28 04:15:48;;;;;;;1.25;1.05;;;15.40;99.90;;;;;;4956885;29;20102;-73
2022/05/28 04:18:14;;;;;;;2.75;1.30;;;15.30;99.90;;;;;;4957062;29;20163;-73
2022/05/28 04:20:40;;;;;;;1.73;1.10;;;15.30;99.90;;;;;;4956536;29;20453;-74
2022/05/28 04:23:05;;;;;;;1.10;1.00;;;15.20;99.90;;;;;;4957142;29;20122;-73
2022/05/28 04:25:31;;;;;;;1.92;1.17;;;15.20;99.90;;;;;;4956896;29;20110;-74
2022/05/28 04:27:57;;;;;;;1.02;0.80;;;15.20;99.90;;;;;;4956862;29;20364;-73
2022/05/28 04:30:22;;;;;;;1.25;0.98;;;15.10;99.90;;;;;;4956855;29;20026;-74
2022/05/28 04:32:48;;;;;;;1.08;0.95;;;15.10;99.90;;;;;;4956153;29;20420;-73
2022/05/28 04:35:14;;;;;;;1.20;1.10;;;15.10;99.90;;;;;;4956960;29;20023;-73
2022/05/28 04:37:40;;;;;;;0.95;0.90;;;15.00;99.90;;;;;;4956632;29;20111;-73
2022/05/28 04:40:06;;;;;;;1.42;1.00;;;15.00;99.90;;;;;;4956848;29;20376;-73
2022/05/28 04:42:32;;;;;;;1.08;0.98;;;15.00;99.90;;;;;;4956763;29;20090;-73
2022/05/28 04:44:58;;;;;;;2.03;0.98;;;15.00;99.90;;;;;;4938833;29;20488;-73
2022/05/28 04:47:24;;;;;;;1.10;1.00;;;14.90;99.90;;;;;;4956411;29;20154;-73
2022/05/28 04:49:50;;;;;;;2.78;1.33;;;14.90;99.90;;;;;;4955070;29;20039;-73
2022/05/28 04:52:15;;;;;;;3.60;1.15;;;14.90;99.90;;;;;;4956931;29;20031;-73
2022/05/28 04:54:41;;;;;;;1.13;1.02;;;14.90;99.90;;;;;;4956378;29;20105;-74
2022/05/28 04:57:07;;;;;;;1.63;1.10;;;14.90;99.90;;;;;;4956506;29;20019;-73
2022/05/28 04:59:32;;;;;;;0.95;0.93;;;14.90;99.90;;;;;;4963628;28;20027;-74
2022/05/28 05:01:58;;;;;;;1.08;0.88;;;14.90;99.90;;;;;;4964304;28;20050;-74
2022/05/28 05:04:24;;;;;;;1.67;1.05;;;14.90;99.90;;;;;;4964085;28;20026;-74
2022/05/28 05:06:49;;;;;;;2.17;1.20;;;15.00;99.90;;;;;;4965483;28;20153;-74
2022/05/28 05:09:15;;;;;;;1.15;0.88;;;15.00;99.90;;;;;;4963685;28;20027;-73
2022/05/28 05:11:41;;;;;;;1.35;0.82;;;15.00;99.90;;;;;;4956122;28;20031;-74
2022/05/28 05:14:07;;;;;;;1.00;0.93;;;15.10;99.90;;;;;;4955926;29;20054;-72
2022/05/28 05:16:33;;;;;;;0.65;0.65;;;15.20;99.90;;;;;;4938349;29;20070;-73
2022/05/28 05:18:59;;;;;;;1.05;0.95;;;15.20;99.90;;;;;;4955200;29;20073;-74
2022/05/28 05:21:25;;;;;;;1.58;1.20;;;15.20;99.90;;;;;;4955789;29;20157;-72
2022/05/28 05:23:50;;;;;;;1.20;1.10;;;15.20;99.90;;;;;;4954926;29;20019;-73
2022/05/28 05:26:19;;;;;;;1.23;1.13;;;15.30;99.90;;;;;;4955862;29;20023;-74
2022/05/28 05:28:44;;;;;;;0.82;0.82;;;15.40;99.90;;;;;;4955152;29;20020;-74
2022/05/28 05:31:11;;;;;;;1.15;0.80;;;15.40;99.90;;;;;;4955340;29;20416;-74
2022/05/28 05:33:37;;;;;;;1.50;0.98;;;15.50;99.90;;;;;;4955605;29;20027;-73
2022/05/28 05:36:03;;;;;;;1.35;1.05;;;15.70;99.90;;;;;;4955470;29;20058;-74
2022/05/28 05:38:28;;;;;;;1.75;1.00;;;15.90;99.10;;;;;;4955663;29;20027;-74
2022/05/28 05:40:54;;;;;;;1.92;1.00;;;16.40;99.90;;;;;;4921848;29;20118;-73
2022/05/28 05:43:20;;;;;;;3.00;0.90;;;16.50;96.20;;;;;;4954979;29;20055;-73
2022/05/28 05:45:54;;;;;;;1.30;1.20;;;16.40;95.60;;;;;;4955092;29;20055;-74
2022/05/28 05:48:20;;;;;;;1.23;0.93;;;16.70;97.10;;;;;;4955280;29;20063;-74
2022/05/28 05:50:45;;;;;;;1.42;0.90;;;16.80;95.40;;;;;;4954951;29;20027;-72
2022/05/28 05:53:11;;;;;;;1.55;0.80;;;16.90;94.20;;;;;;4955321;29;20431;-72
2022/05/28 05:55:37;;;;;;;1.75;1.00;;;17.20;96.20;;;;;;4954969;29;20031;-71
2022/05/28 05:58:04;;;;;;;1.10;0.90;;;17.40;92.80;;;;;;4954998;29;20063;-74
2022/05/28 06:00:29;;;;;;;1.48;1.23;;;17.70;90.80;;;;;;4955289;29;20031;-73
2022/05/28 06:02:55;;;;;;;1.10;0.90;;;18.00;85.50;;;;;;4954901;29;20047;-73
2022/05/28 06:05:21;;;;;;;1.48;0.93;;;18.10;87.40;;;;;;4954798;29;20065;-73
2022/05/28 06:07:46;;;;;;;1.00;0.90;;;17.90;87.90;;;;;;4955093;29;20055;-73
2022/05/28 06:10:12;;;;;;;0.70;0.70;;;17.70;87.80;;;;;;4954729;29;20089;-73
2022/05/28 06:12:38;;;;;;;2.03;0.95;;;17.50;88.80;;;;;;4937907;29;20208;-73
2022/05/28 06:15:04;;;;;;;0.80;0.80;;;17.20;90.70;;;;;;4954317;29;20035;-74
2022/05/28 06:17:30;;;;;;;2.03;1.10;;;17.10;91.40;;;;;;4955034;29;20058;-73
2022/05/28 06:19:56;;;;;;;0.90;0.90;;;17.00;91.90;;;;;;4936941;29;20110;-74
2022/05/28 06:22:22;;;;;;;1.63;1.00;;;16.80;92.40;;;;;;4954739;29;20048;-73
2022/05/28 06:24:47;;;;;;;1.65;0.85;;;16.70;92.60;;;;;;4954806;29;20078;-74
2022/05/28 06:27:14;;;;;;;0.95;0.82;;;17.20;95.30;;;;;;4947445;28;20560;-72
2022/05/28 06:29:40;;;;;;;1.30;0.93;;;17.40;90.40;;;;;;4951894;29;20094;-72
2022/05/28 06:32:06;;;;;;;1.55;0.90;;;17.60;91.00;;;;;;4954681;29;20035;-74
2022/05/28 06:34:31;;;;;;;2.05;0.90;;;17.60;89.30;;;;;;4954306;29;20107;-74
2022/05/28 06:36:57;;;;;;;0.90;0.70;;;17.50;89.70;;;;;;4954669;29;20035;-73
2022/05/28 06:39:23;;;;;;;1.02;0.90;;;17.40;89.80;;;;;;4954241;29;20031;-73
2022/05/28 06:41:48;;;;;;;1.35;0.95;;;17.30;90.50;;;;;;4937000;29;20039;-73
2022/05/28 06:44:14;;;;;;;0.88;0.77;;;17.60;89.70;;;;;;4954577;29;20047;-73
2022/05/28 06:46:39;;;;;;;2.58;0.98;;;17.50;86.90;;;;;;4954678;29;20038;-72
2022/05/28 06:49:05;;;;;;;1.80;1.27;;;17.50;87.50;;;;;;4954062;29;20483;-73
2022/05/28 06:51:31;;;;;;;0.90;0.90;;;17.50;86.80;;;;;;4954104;29;20437;-72
2022/05/28 06:53:57;;;;;;;1.40;1.20;;;17.50;85.30;;;;;;4954000;28;20101;-73
2022/05/28 06:56:23;;;;;;;2.15;1.17;;;17.70;87.80;;;;;;4954240;29;20452;-73
2022/05/28 06:58:48;;;;;;;1.38;1.10;;;18.20;83.20;;;;;;4968689;28;20037;-74
2022/05/28 07:01:16;;;;;;;1.33;1.00;;;18.40;78.60;;;;;;4952803;29;20411;-73
2022/05/28 07:03:43;;;;;;;0.90;0.77;;;18.40;76.30;;;;;;4954174;28;20039;-73
2022/05/28 07:06:10;;;;;;;0.80;0.80;;;18.30;74.30;;;;;;4953485;29;20114;-73
2022/05/28 07:08:36;;;;;;;1.02;0.80;;;18.10;73.70;;;;;;4954120;28;20033;-73
2022/05/28 07:11:05;;;;;;;0.98;0.82;;;17.90;75.60;;;;;;4953520;28;20035;-75
2022/05/28 07:13:31;;;;;;;1.85;0.90;;;17.80;75.00;;;;;;4953373;28;20475;-74
2022/05/28 07:15:57;;;;;;;0.95;0.90;;;17.60;76.20;;;;;;4952602;29;20468;-74
2022/05/28 07:18:24;;;;;;;1.00;0.90;;;17.50;76.50;;;;;;4953903;29;20042;-73
2022/05/28 07:20:50;;;;;;;0.93;0.80;;;17.40;75.40;;;;;;4956235;28;20456;-73
2022/05/28 07:23:18;;;;;;;1.02;0.93;;;17.50;76.20;;;;;;4962336;28;20046;-74
2022/05/28 07:25:45;;;;;;;1.08;0.90;;;17.40;76.50;;;;;;4959254;28;20134;-73
2022/05/28 07:28:31;;;;;;;1.85;0.93;;;17.50;76.20;;;;;;4954380;29;20039;-73
2022/05/28 07:31:03;;;;;;;1.88;0.82;;;17.50;75.30;;;;;;4959436;28;20031;-75
2022/05/28 07:33:31;;;;;;;1.60;0.90;;;17.30;71.80;;;;;;4955214;28;20126;-73
2022/05/28 07:35:58;;;;;;;3.05;0.70;;;17.30;71.30;;;;;;4953560;29;20156;-72
2022/05/28 07:38:25;;;;;;;1.52;0.88;;;17.20;73.40;;;;;;4953939;29;20029;-73
2022/05/28 07:40:52;;;;;;;1.45;1.05;;;17.10;71.80;;;;;;4953387;29;20467;-74
2022/05/28 07:43:18;;;;;;;2.90;1.33;;;17.10;73.10;;;;;;4953425;29;20078;-73
2022/05/28 07:45:45;;;;;;;1.00;0.80;;;17.10;74.50;;;;;;4953672;29;20035;-74
2022/05/28 07:48:13;;;;;;;0.82;0.82;;;17.10;75.60;;;;;;4953928;29;20422;-73
2022/05/28 07:50:39;;;;;;;3.40;1.02;;;17.20;76.80;;;;;;4953605;29;20368;-73
2022/05/28 07:53:06;;;;;;;1.15;1.05;;;17.10;77.30;;;;;;4953094;29;20160;-73
2022/05/28 07:55:31;;;;;;;4.47;1.05;;;17.10;79.30;;;;;;4953574;29;20031;-73
2022/05/28 07:58:02;;;;;;;3.53;1.00;;;17.00;78.10;;;;;;4953208;29;20031;-73
2022/05/28 08:00:28;;;;;;;0.73;0.73;;;17.00;78.30;;;;;;4953411;29;20019;-74
2022/05/28 08:02:54;;;;;;;1.85;1.25;;;17.00;77.20;;;;;;4951559;29;20038;-72
2022/05/28 08:05:19;;;;;;;1.40;0.85;;;17.00;76.70;;;;;;4953691;29;20061;-73
2022/05/28 08:07:45;;;;;;;1.13;1.00;;;17.10;78.00;;;;;;4953340;29;20027;-73
2022/05/28 08:10:11;;;;;;;1.65;0.90;;;17.20;78.20;;;;;;4952767;29;20119;-72
2022/05/28 08:12:36;;;;;;;4.10;0.98;;;17.20;72.10;;;;;;4953364;29;20031;-72
2022/05/28 08:15:02;;;;;;;0.80;0.80;;;17.10;70.10;;;;;;4952839;29;20039;-72
2022/05/28 08:17:30;;;;;;;2.30;0.88;;;17.00;70.30;;;;;;4953444;29;20090;-72
2022/05/28 08:19:55;;;;;;;2.05;0.93;;;17.00;70.20;;;;;;4953448;29;20031;-73
2022/05/28 08:25:05;;;;;;;2.70;0.90;;;16.80;70.20;;;;;;4953259;29;20086;-73
2022/05/28 08:27:31;;;;;;;4.40;1.10;;;16.80;68.40;;;;;;4953471;29;20075;-74
2022/05/28 08:29:57;;;;;;;2.40;1.50;;;16.90;69.70;;;;;;4953141;29;20031;-73
2022/05/28 08:32:22;;;;;;;0.98;0.80;;;17.00;69.10;;;;;;4953478;29;20082;-73
2022/05/28 08:34:48;;;;;;;0.60;0.60;;;17.10;69.70;;;;;;4953396;29;20046;-74
2022/05/28 08:37:13;;;;;;;1.40;1.17;;;17.30;68.90;;;;;;4953227;29;20069;-73
2022/05/28 08:39:39;;;;;;;1.23;0.85;;;17.60;67.40;;;;;;4953608;29;20035;-73
2022/05/28 08:42:08;;;;;;;3.28;0.90;;;17.60;64.90;;;;;;4953284;28;20063;-73
2022/05/28 08:44:39;;;;;;;1.13;0.70;;;17.80;65.50;;;;;;4956714;29;20043;-72
2022/05/28 08:47:25;;;;;;;1.63;0.95;;;17.90;64.30;;;;;;4939275;29;20110;-73
2022/05/28 08:49:52;;;;;;;4.07;0.93;;;18.00;63.70;;;;;;4956372;29;20035;-75
2022/05/28 08:52:33;;;;;;;2.55;0.70;;;18.20;62.20;;;;;;4956548;29;20035;-73
2022/05/28 08:55:08;;;;;;;3.33;1.00;;;18.20;59.80;;;;;;4955959;29;20380;-74
2022/05/28 08:58:04;;;;;;;4.68;0.70;;;18.50;61.10;;;;;;4956139;29;20038;-73
2022/05/28 09:00:43;;;;;;;0.80;0.65;;;18.70;60.00;;;;;;4956439;29;20190;-73
2022/05/28 09:03:25;;;;;;;2.15;0.68;;;18.60;58.90;;;;;;4955973;28;20094;-73
2022/05/28 09:06:14;;;;;;;1.55;0.80;;;18.60;59.40;;;;;;4956383;28;20037;-75
2022/05/28 09:08:44;;;;;;;0.98;0.75;;;18.60;59.60;;;;;;4956732;28;20055;-74
2022/05/28 09:11:38;;;;;;;1.02;0.70;;;18.60;58.60;;;;;;4955995;28;20027;-73
2022/05/28 09:14:27;;;;;;;3.38;0.93;;;18.60;57.70;;;;;;4970992;28;20056;-74
2022/05/28 09:16:56;;;;;;;2.50;0.70;;;18.50;58.00;;;;;;4956425;28;20023;-74
2022/05/28 09:19:29;;;;;;;1.08;0.70;;;18.50;58.50;;;;;;4955787;28;20488;-73
2022/05/28 09:21:55;;;;;;;1.98;0.60;;;18.60;58.50;;;;;;4955482;28;20035;-73
2022/05/28 09:24:26;;;;;;;1.30;0.90;;;18.70;59.00;;;;;;4956000;29;20043;-72
2022/05/28 09:26:58;;;;;;;0.60;0.60;;;18.80;58.20;;;;;;4955414;28;20495;-73
2022/05/28 09:29:42;;;;;;;1.83;1.23;;;18.80;58.40;;;;;;4970944;28;20027;-73
2022/05/28 09:32:11;;;;;;;0.73;0.68;;;18.80;57.00;;;;;;4955435;29;20357;-74
2022/05/28 09:35:06;;;;;;;2.35;0.80;;;18.80;57.30;;;;;;4955789;29;20507;-73
2022/05/28 09:37:40;;;;;;;1.05;0.80;;;18.80;57.40;;;;;;4913326;29;20041;-73
2022/05/28 09:40:36;;;;;;;1.45;1.13;;;19.00;57.70;;;;;;4955637;29;20030;-73
2022/05/28 09:43:23;;;;;;;2.13;1.00;;;19.00;58.10;;;;;;4954901;29;20027;-72
2022/05/28 09:46:19;;;;;;;1.45;0.90;;;19.00;57.20;;;;;;4955605;29;20078;-73
2022/05/28 09:48:47;;;;;;;1.02;0.68;;;19.00;57.70;;;;;;4955769;29;20031;-73
2022/05/28 09:51:24;;;;;;;1.05;0.80;;;19.00;58.50;;;;;;4955011;29;20023;-74
2022/05/28 09:54:23;;;;;;;1.20;0.95;;;19.10;56.80;;;;;;4955315;28;20035;-74
2022/05/28 09:57:00;;;;;;;2.45;0.85;;;19.10;57.40;;;;;;4955597;29;20273;-73
2022/05/28 09:59:32;;;;;;;4.13;0.82;;;19.20;56.50;;;;;;4955598;29;20027;-73
2022/05/28 10:02:01;;;;;;;2.83;0.90;;;19.10;56.50;;;;;;4954704;29;20122;-75
2022/05/28 10:04:30;;;;;;;2.70;0.85;;;19.10;57.00;;;;;;4955225;29;20035;-74
2022/05/28 10:07:02;;;;;;;1.10;0.80;;;19.00;57.20;;;;;;4955126;29;20098;-76
2022/05/28 10:09:34;;;;;;;2.20;0.85;;;18.80;56.60;;;;;;4955444;29;20019;-73
2022/05/28 10:12:07;;;;;;;1.88;0.93;;;18.80;56.70;;;;;;4954898;29;20059;-73
2022/05/28 10:14:33;;;;;;;1.30;0.70;;;18.80;57.40;;;;;;4955424;29;20038;-74
2022/05/28 10:17:02;;;;;;;1.00;0.80;;;18.60;57.10;;;;;;4954396;29;20031;-75
2022/05/28 10:19:41;;;;;;;0.63;0.60;;;18.50;58.00;;;;;;4955052;29;20023;-72
2022/05/28 10:22:14;;;;;;;0.98;0.80;;;18.40;57.30;;;;;;4954454;29;20443;-74
2022/05/28 10:24:50;;;;;;;1.35;1.05;;;18.30;58.20;;;;;;4955138;29;20055;-72
2022/05/28 10:27:30;;;;;;;0.65;0.60;;;18.30;58.80;;;;;;4954503;29;20055;-74
2022/05/28 10:29:59;;;;;;;1.88;0.80;;;18.40;59.40;;;;;;4955109;29;20035;-73
2022/05/28 10:32:44;;;;;;;1.25;0.90;;;18.40;59.00;;;;;;4955137;29;20361;-73
2022/05/28 10:35:20;;;;;;;2.30;0.88;;;18.40;60.00;;;;;;4954543;29;20034;-73
2022/05/28 10:37:46;;;;;;;1.15;1.05;;;18.50;59.00;;;;;;4954885;29;20416;-74
2022/05/28 10:40:23;;;;;;;2.60;1.00;;;18.50;57.50;;;;;;4954521;29;20070;-74
2022/05/28 10:42:53;;;;;;;0.73;0.73;;;18.40;56.90;;;;;;4954463;29;20023;-73
2022/05/28 10:45:20;;;;;;;1.50;0.80;;;18.40;56.00;;;;;;4954221;29;20038;-72
2022/05/28 10:48:05;;;;;;;1.95;1.10;;;18.30;55.30;;;;;;4954616;29;20464;-73
2022/05/28 10:51:01;;;;;;;0.77;0.73;;;18.30;56.20;;;;;;4954849;29;20027;-73
2022/05/28 10:53:42;;;;;;;1.20;1.10;;;18.30;56.40;;;;;;4954401;29;20027;-73
2022/05/28 10:56:17;;;;;;;0.50;0.50;;;18.50;55.80;;;;;;4936438;29;20082;-73
2022/05/28 10:59:21;;;;;;;1.10;0.88;;;18.60;54.90;;;;;;4954408;29;20031;-74
2022/05/28 11:02:32;;;;;;;0.98;0.77;;;18.70;53.10;;;;;;4941286;29;20075;-74
2022/05/28 11:05:44;;;;;;;1.27;0.70;;;18.80;52.90;;;;;;4928866;28;20044;-72
2022/05/28 11:08:33;;;;;;;1.17;0.65;;;18.80;52.20;;;;;;4930378;29;20051;-73
2022/05/28 11:11:07;;;;;;;1.17;0.75;;;18.80;51.70;;;;;;4954587;29;20114;-73
2022/05/28 11:13:50;;;;;;;0.85;0.80;;;18.70;51.70;;;;;;4954186;29;20039;-73
2022/05/28 11:16:39;;;;;;;0.43;0.40;;;18.60;51.90;;;;;;4967182;28;20443;-73
2022/05/28 11:19:11;;;;;;;1.88;1.10;;;18.60;54.00;;;;;;4953711;28;20027;-73
2022/05/28 11:22:03;;;;;;;0.77;0.70;;;18.50;54.70;;;;;;4953710;29;20061;-73
2022/05/28 11:24:38;;;;;;;1.30;0.90;;;18.40;54.80;;;;;;4953568;29;20086;-74
2022/05/28 11:27:22;;;;;;;0.80;0.70;;;18.30;56.00;;;;;;4953473;29;20023;-74
2022/05/28 11:30:12;;;;;;;0.68;0.63;;;18.20;55.90;;;;;;4953795;29;20122;-74
2022/05/28 11:32:55;;;;;;;0.50;0.50;;;18.20;56.70;;;;;;4952789;29;20114;-72
2022/05/28 11:35:21;;;;;;;1.48;1.38;;;18.00;56.90;;;;;;4952597;29;20073;-73
2022/05/28 11:38:00;;;;;;;1.38;1.10;;;17.90;58.20;;;;;;4953840;29;20027;-73
2022/05/28 11:40:32;;;;;;;0.98;0.88;;;17.90;57.70;;;;;;4952717;29;20023;-73
2022/05/28 11:43:01;;;;;;;1.85;1.20;;;17.70;57.20;;;;;;4953498;29;20063;-73
2022/05/28 11:45:51;;;;;;;1.27;0.80;;;17.70;58.00;;;;;;4951953;29;20471;-73
2022/05/28 11:51:27;;;;;;;2.08;0.77;;;17.80;58.30;;;;;;4936943;29;20036;-73
2022/05/28 11:51:28;;;;;;;1.27;0.77;;;17.70;58.40;;;;;;4952559;29;20034;-74
2022/05/28 11:54:10;;;;;;;1.35;0.80;;;17.70;58.70;;;;;;4952401;29;20412;-73
2022/05/28 11:56:36;;;;;;;0.90;0.85;;;17.70;58.40;;;;;;4953443;29;20023;-74
2022/05/28 11:59:17;;;;;;;0.85;0.80;;;17.60;59.20;;;;;;4953851;28;20042;-72
2022/05/28 12:01:47;;;;;;;0.85;0.82;;;17.50;60.10;;;;;;4961799;28;20079;-72
2022/05/28 12:04:13;;;;;;;1.02;0.63;;;17.40;61.10;;;;;;4962302;28;20033;-73
2022/05/28 12:07:04;;;;;;;1.65;0.82;;;17.40;62.10;;;;;;4963654;28;20105;-73
2022/05/28 12:09:34;;;;;;;1.05;0.70;;;17.40;61.40;;;;;;4962464;28;20476;-74
2022/05/28 12:12:14;;;;;;;0.88;0.70;;;17.30;60.70;;;;;;4963614;28;20109;-74
2022/05/28 12:14:44;;;;;;;2.50;0.98;;;17.20;60.90;;;;;;4966485;28;20094;-73
2022/05/28 12:17:11;;;;;;;0.82;0.50;;;17.20;60.90;;;;;;4973059;28;20035;-73
2022/05/28 12:19:54;;;;;;;0.98;0.70;;;17.10;59.20;;;;;;4976048;28;20026;-73
2022/05/28 12:22:39;;;;;;;1.00;0.90;;;17.10;57.10;;;;;;4975704;28;20055;-73
2022/05/28 12:25:20;;;;;;;1.50;0.73;;;17.10;57.60;;;;;;4976639;28;20117;-73
2022/05/28 12:28:08;;;;;;;0.63;0.63;;;17.10;58.50;;;;;;4937967;29;20035;-73
2022/05/28 12:30:41;;;;;;;1.33;0.85;;;17.10;59.60;;;;;;4937905;29;20027;-73
2022/05/28 12:33:22;;;;;;;1.35;0.88;;;17.10;59.00;;;;;;4937818;29;20130;-73
2022/05/28 12:36:18;;;;;;;0.95;0.82;;;17.20;59.70;;;;;;4937623;29;20138;-73
2022/05/28 12:38:53;;;;;;;2.25;1.08;;;17.30;59.50;;;;;;4937641;29;20058;-72
2022/05/28 12:41:31;;;;;;;1.52;0.73;;;17.40;59.90;;;;;;4937272;29;20054;-73
2022/05/28 12:44:08;;;;;;;2.08;0.82;;;17.60;58.10;;;;;;4937372;29;20134;-73
2022/05/28 12:46:44;;;;;;;2.00;0.88;;;17.50;56.20;;;;;;4937491;29;20035;-73
2022/05/28 12:49:26;;;;;;;1.55;0.98;;;17.50;56.20;;;;;;4937238;29;20086;-73
2022/05/28 12:52:09;;;;;;;1.40;1.13;;;17.50;56.20;;;;;;4937469;29;20039;-74
2022/05/28 12:54:38;;;;;;;0.88;0.70;;;17.40;56.30;;;;;;4937055;29;20028;-73
2022/05/28 12:57:31;;;;;;;0.88;0.77;;;17.40;55.90;;;;;;4937262;29;20031;-74
2022/05/28 13:00:19;;;;;;;2.08;1.00;;;17.30;55.70;;;;;;4937558;29;20031;-74
2022/05/28 13:02:47;;;;;;;3.90;1.05;;;17.30;56.50;;;;;;4937060;29;20475;-72
2022/05/28 13:05:35;;;;;;;2.05;0.70;;;17.30;57.10;;;;;;4936494;29;20032;-74
2022/05/28 13:08:10;;;;;;;2.58;0.70;;;17.20;57.40;;;;;;4937557;29;20059;-74
2022/05/28 13:10:37;;;;;;;1.88;0.50;;;17.20;59.10;;;;;;4936679;29;20050;-74
2022/05/28 13:13:20;;;;;;;1.23;0.70;;;17.10;60.00;;;;;;4950026;29;20032;-73
2022/05/28 13:16:14;;;;;;;0.80;0.70;;;17.10;60.40;;;;;;4956534;29;20034;-74